Time;durP1;ratioP1;P1;durP2;ratioP2;P2;SDS_P1;SDS_P2;PMS_P1;PMS_P2;Temp;Humidity;BMP_temperature;BMP_pressure;BME280_temperature;BME280_humidity;BME280_pressure;Samples;Min_cycle;Max_cycle;Signal;HPM_P1;HPM_P2
2023/07/24 00:00:23;;;;;;;16.60;8.95;;;;;;;19.12;93.64;95966.69;4997196;28;20521;-70
2023/07/24 00:02:49;;;;;;;19.52;9.98;;;;;;;18.56;97.81;95959.50;5001619;28;20045;-68
2023/07/24 00:05:15;;;;;;;18.60;9.80;;;;;;;18.10;100.00;95959.50;4997231;28;20034;-69
2023/07/24 00:07:40;;;;;;;18.35;9.15;;;;;;;17.89;100.00;95946.97;4983791;28;20038;-68
2023/07/24 00:10:06;;;;;;;17.60;9.07;;;;;;;18.01;100.00;95942.72;4996318;28;20162;-68
2023/07/24 00:12:31;;;;;;;15.30;8.70;;;;;;;18.19;100.00;95950.59;5001084;28;20041;-70
2023/07/24 00:14:57;;;;;;;13.88;8.13;;;;;;;18.37;100.00;95968.75;5001428;28;20049;-69
2023/07/24 00:17:22;;;;;;;14.60;8.32;;;;;;;18.57;100.00;95955.53;4996251;28;20073;-69
2023/07/24 00:19:48;;;;;;;18.15;9.05;;;;;;;18.51;100.00;95952.50;5000024;28;20065;-68
2023/07/24 00:22:13;;;;;;;15.48;8.77;;;;;;;18.31;100.00;95933.25;4995609;28;20042;-69
2023/07/24 00:24:38;;;;;;;17.58;9.02;;;;;;;18.24;100.00;95940.94;5000856;28;20041;-69
2023/07/24 00:27:04;;;;;;;15.52;9.00;;;;;;;18.20;100.00;95943.81;4992394;28;20746;-68
2023/07/24 00:29:29;;;;;;;15.27;8.23;;;;;;;18.28;100.00;95945.19;4981653;28;20049;-68
2023/07/24 00:31:55;;;;;;;17.42;8.82;;;;;;;18.24;100.00;95941.75;4995437;28;20050;-68
2023/07/24 00:34:20;;;;;;;14.38;8.65;;;;;;;18.17;100.00;95946.69;4978432;28;20043;-69
2023/07/24 00:36:45;;;;;;;17.35;9.45;;;;;;;18.29;100.00;95946.78;4979779;28;20038;-69
2023/07/24 00:39:13;;;;;;;15.27;8.48;;;;;;;18.44;100.00;95955.47;4972080;28;20648;-69
2023/07/24 00:41:39;;;;;;;16.27;8.90;;;;;;;18.42;100.00;95949.59;4974933;28;20042;-69
2023/07/24 00:44:04;;;;;;;17.42;8.88;;;;;;;17.92;100.00;95934.25;4976756;28;20104;-68
2023/07/24 00:46:32;;;;;;;16.10;8.30;;;;;;;17.64;100.00;95932.91;4981454;28;20121;-68
2023/07/24 00:48:59;;;;;;;18.50;9.05;;;;;;;17.66;100.00;95941.56;4980948;28;20052;-68
2023/07/24 00:51:27;;;;;;;17.23;8.57;;;;;;;17.82;100.00;95924.94;4991653;28;20038;-67
2023/07/24 00:53:54;;;;;;;26.27;10.18;;;;;;;17.01;100.00;95920.88;4981405;28;20141;-67
2023/07/24 00:56:19;;;;;;;19.30;9.68;;;;;;;17.25;100.00;95934.59;4976624;28;20050;-68
2023/07/24 00:58:44;;;;;;;17.85;9.10;;;;;;;17.45;100.00;95935.31;4981421;28;20122;-71
2023/07/24 01:01:10;;;;;;;18.95;9.80;;;;;;;17.51;100.00;95944.66;4976374;28;20115;-68
2023/07/24 01:03:36;;;;;;;22.27;9.20;;;;;;;17.77;100.00;95992.72;4982037;28;20081;-73
2023/07/24 01:06:02;;;;;;;19.65;9.80;;;;;;;17.75;100.00;95984.06;4979533;28;20042;-69
2023/07/24 01:08:28;;;;;;;20.60;9.32;;;;;;;17.84;100.00;96002.84;4978918;28;20049;-69
2023/07/24 01:11:02;;;;;;;16.42;9.25;;;;;;;17.82;100.00;96001.72;4981245;28;20046;-69
2023/07/24 01:13:34;;;;;;;21.25;9.48;;;;;;;17.78;100.00;96032.28;4978643;28;20101;-68
2023/07/24 01:16:14;;;;;;;21.25;10.18;;;;;;;17.90;100.00;96083.50;4978352;28;20049;-68
2023/07/24 01:18:42;;;;;;;20.67;9.38;;;;;;;17.78;100.00;96129.22;4980380;28;20407;-69
2023/07/24 01:21:11;;;;;;;23.85;11.05;;;;;;;17.83;100.00;96166.72;4974256;28;20745;-69
2023/07/24 01:23:58;;;;;;;20.90;11.20;;;;;;;18.12;100.00;96169.69;4980894;28;20492;-69
2023/07/24 01:26:25;;;;;;;17.67;10.43;;;;;;;18.26;100.00;96169.38;4975232;28;20480;-68
2023/07/24 01:28:50;;;;;;;21.75;10.23;;;;;;;18.24;100.00;96112.78;4981156;28;20361;-69
2023/07/24 01:31:17;;;;;;;19.98;10.73;;;;;;;18.42;100.00;96077.13;4976941;28;20041;-69
2023/07/24 01:33:43;;;;;;;20.38;11.82;;;;;;;18.27;100.00;96062.03;4982461;28;20058;-69
2023/07/24 01:36:09;;;;;;;21.88;11.27;;;;;;;18.43;100.00;96025.22;4976559;28;20073;-70
2023/07/24 01:38:36;;;;;;;20.60;11.45;;;;;;;17.63;100.00;95970.91;4981739;28;20049;-68
2023/07/24 01:41:03;;;;;;;19.42;10.48;;;;;;;17.70;100.00;95967.16;4978824;28;20074;-68
2023/07/24 01:43:29;;;;;;;21.70;10.75;;;;;;;17.45;100.00;95954.69;4979880;28;20046;-68
2023/07/24 01:45:56;;;;;;;23.73;11.70;;;;;;;17.36;100.00;95963.59;4980334;28;20417;-68
2023/07/24 01:48:21;;;;;;;21.25;11.18;;;;;;;17.07;100.00;95960.66;4976296;28;20062;-69
2023/07/24 01:50:47;;;;;;;20.25;10.82;;;;;;;17.08;100.00;95967.75;4984430;28;20552;-68
2023/07/24 01:53:13;;;;;;;20.70;11.80;;;;;;;17.10;100.00;95953.50;4979548;28;20134;-68
2023/07/24 01:55:38;;;;;;;19.35;10.93;;;;;;;17.15;100.00;95948.22;4983803;28;20046;-68
2023/07/24 01:58:04;;;;;;;21.55;10.73;;;;;;;17.42;100.00;95960.31;4980142;28;20051;-68
2023/07/24 02:00:29;;;;;;;20.05;11.07;;;;;;;17.78;100.00;95952.72;4983630;28;20108;-68
2023/07/24 02:02:55;;;;;;;19.75;10.82;;;;;;;17.99;100.00;95950.69;4982134;28;20050;-67
2023/07/24 02:05:22;;;;;;;21.17;11.18;;;;;;;18.12;100.00;95950.78;4979366;28;20058;-68
2023/07/24 02:07:47;;;;;;;19.30;10.68;;;;;;;18.10;100.00;95942.13;4984355;28;20062;-68
2023/07/24 02:10:13;;;;;;;19.90;10.20;;;;;;;18.15;100.00;95933.28;4978218;28;20062;-69
2023/07/24 02:12:38;;;;;;;19.35;11.35;;;;;;;18.29;100.00;95932.09;4984021;28;20042;-69
2023/07/24 02:15:04;;;;;;;21.90;10.52;;;;;;;18.28;100.00;95925.78;4980853;28;20149;-68
2023/07/24 02:17:29;;;;;;;21.88;11.23;;;;;;;18.24;100.00;95927.09;4984372;28;20046;-69
2023/07/24 02:19:54;;;;;;;20.38;11.80;;;;;;;17.86;100.00;95924.88;4985222;28;20384;-69
2023/07/24 02:22:20;;;;;;;19.80;11.70;;;;;;;17.64;100.00;95932.91;4980770;28;20081;-69
2023/07/24 02:24:45;;;;;;;18.23;10.48;;;;;;;17.63;100.00;95939.66;4988442;28;20046;-69
2023/07/24 02:27:14;;;;;;;22.05;11.90;;;;;;;17.91;100.00;95944.53;4994936;28;20034;-69
2023/07/24 02:29:39;;;;;;;19.23;11.10;;;;;;;17.97;100.00;95944.81;4983981;28;20484;-69
2023/07/24 02:32:05;;;;;;;18.25;10.95;;;;;;;17.94;100.00;95951.97;4978659;28;20065;-69
2023/07/24 02:34:30;;;;;;;21.40;11.13;;;;;;;17.88;100.00;95950.16;4984333;28;20042;-68
2023/07/24 02:36:55;;;;;;;19.50;11.43;;;;;;;17.80;100.00;95941.22;4984723;28;20042;-69
2023/07/24 02:39:21;;;;;;;21.52;11.95;;;;;;;17.68;100.00;95941.91;4978763;28;20606;-69
2023/07/24 02:41:50;;;;;;;22.58;12.02;;;;;;;17.70;100.00;95937.50;4983481;28;20125;-69
2023/07/24 02:44:15;;;;;;;20.90;11.93;;;;;;;17.66;100.00;95938.78;4978169;28;20365;-69
2023/07/24 02:46:41;;;;;;;20.10;11.52;;;;;;;17.76;100.00;95924.69;4982482;28;20053;-69
2023/07/24 02:49:07;;;;;;;19.10;11.20;;;;;;;17.85;100.00;95929.66;4977704;28;20042;-69
2023/07/24 02:51:32;;;;;;;22.40;12.30;;;;;;;17.87;100.00;95926.47;4982481;28;20049;-69
2023/07/24 02:53:57;;;;;;;21.20;11.25;;;;;;;17.96;100.00;95923.84;4982364;28;20046;-70
2023/07/24 02:56:23;;;;;;;21.63;12.18;;;;;;;17.91;100.00;95938.22;4976495;28;20046;-68
2023/07/24 02:58:48;;;;;;;18.70;11.48;;;;;;;17.91;100.00;95927.91;4983805;28;20042;-68
2023/07/24 03:01:14;;;;;;;21.13;10.93;;;;;;;17.70;100.00;95914.56;4977855;28;20078;-69
2023/07/24 03:03:42;;;;;;;19.38;10.88;;;;;;;17.44;100.00;95913.59;4982664;28;20045;-69
2023/07/24 03:06:08;;;;;;;20.77;11.93;;;;;;;17.48;100.00;95914.28;4977905;28;20376;-70
2023/07/24 03:08:33;;;;;;;21.10;11.82;;;;;;;17.37;100.00;95922.84;4982728;28;20104;-69
2023/07/24 03:11:00;;;;;;;22.13;12.80;;;;;;;17.27;100.00;95927.44;4997454;28;20046;-69
2023/07/24 03:13:25;;;;;;;19.88;12.13;;;;;;;17.45;100.00;95918.72;4976262;28;20061;-69
2023/07/24 03:15:56;;;;;;;22.55;12.40;;;;;;;17.44;100.00;95938.53;4997658;28;20042;-70
2023/07/24 03:18:21;;;;;;;23.58;12.93;;;;;;;17.13;100.00;95938.81;4978130;28;21876;-70
2023/07/24 03:20:47;;;;;;;20.77;12.25;;;;;;;17.09;100.00;95929.81;4987104;28;20435;-69
2023/07/24 03:23:12;;;;;;;21.67;12.45;;;;;;;17.26;100.00;95927.84;4978328;28;20056;-69
2023/07/24 03:25:38;;;;;;;20.10;12.25;;;;;;;17.30;100.00;95923.00;4984981;28;20383;-70
2023/07/24 03:28:03;;;;;;;20.65;12.45;;;;;;;17.22;100.00;95927.94;4984538;28;20066;-69
2023/07/24 03:30:29;;;;;;;22.10;12.45;;;;;;;17.36;100.00;95927.59;4982280;28;20119;-69
2023/07/24 03:32:54;;;;;;;25.65;12.38;;;;;;;17.20;100.00;95931.13;4996988;28;20038;-68
2023/07/24 03:35:20;;;;;;;21.10;12.85;;;;;;;17.01;100.00;95937.47;4977345;28;20039;-69
2023/07/24 03:37:45;;;;;;;19.85;11.52;;;;;;;17.08;100.00;95939.31;4982357;28;20618;-68
2023/07/24 03:40:11;;;;;;;21.42;12.57;;;;;;;17.19;100.00;95942.63;4992976;28;20050;-69
2023/07/24 03:42:37;;;;;;;20.55;12.20;;;;;;;17.08;100.00;95933.78;4997702;28;20474;-68
2023/07/24 03:45:02;;;;;;;19.80;11.63;;;;;;;17.26;100.00;95936.16;4979946;28;20057;-69
2023/07/24 03:47:28;;;;;;;23.08;13.10;;;;;;;17.22;100.00;95916.84;4981042;28;20129;-69
2023/07/24 03:49:53;;;;;;;21.08;12.55;;;;;;;16.86;100.00;95908.56;4982257;28;20041;-69
2023/07/24 03:52:18;;;;;;;22.42;13.00;;;;;;;16.70;100.00;95903.72;4976237;28;20050;-69
2023/07/24 03:54:44;;;;;;;23.15;12.73;;;;;;;16.73;100.00;95906.41;4982319;28;20046;-69
2023/07/24 03:57:10;;;;;;;20.77;12.07;;;;;;;16.74;100.00;95896.91;4976600;28;20046;-70
2023/07/24 03:59:36;;;;;;;27.20;12.90;;;;;;;16.91;100.00;95895.00;4981469;28;20050;-69
2023/07/24 04:02:01;;;;;;;21.48;12.20;;;;;;;17.06;100.00;95881.63;4981334;28;20507;-69
2023/07/24 04:04:26;;;;;;;20.52;12.05;;;;;;;17.23;100.00;95887.19;4977336;28;20046;-69
2023/07/24 04:06:52;;;;;;;20.13;11.52;;;;;;;17.35;100.00;95881.75;4982798;28;20042;-69
2023/07/24 04:09:17;;;;;;;20.98;11.68;;;;;;;17.47;100.00;95879.53;4986094;28;20129;-69
2023/07/24 04:11:43;;;;;;;18.90;12.02;;;;;;;17.63;100.00;95879.53;4985940;28;20038;-69
2023/07/24 04:14:09;;;;;;;22.85;12.02;;;;;;;17.75;100.00;95880.81;4978718;28;20057;-70
2023/07/24 04:16:34;;;;;;;19.95;11.65;;;;;;;17.58;100.00;95875.28;4982374;28;20641;-70
2023/07/24 04:19:00;;;;;;;23.38;12.23;;;;;;;17.32;100.00;95871.56;4982147;28;20068;-70
2023/07/24 04:21:25;;;;;;;23.58;13.63;;;;;;;16.97;100.00;95862.09;4991685;28;20050;-69
2023/07/24 04:23:51;;;;;;;23.85;12.55;;;;;;;16.99;100.00;95862.44;4980802;28;20112;-70
2023/07/24 04:26:16;;;;;;;21.95;12.40;;;;;;;17.27;100.00;95872.09;4959848;28;20053;-69
2023/07/24 04:28:41;;;;;;;23.05;12.93;;;;;;;17.56;100.00;95869.41;4980968;28;20515;-69
2023/07/24 04:31:07;;;;;;;21.88;12.55;;;;;;;17.80;100.00;95880.28;4991388;28;20049;-69
2023/07/24 04:33:32;;;;;;;19.80;12.52;;;;;;;18.01;100.00;95881.78;4981467;28;20137;-69
2023/07/24 04:35:57;;;;;;;22.40;12.57;;;;;;;18.22;100.00;95897.06;4981737;28;20042;-69
2023/07/24 04:38:23;;;;;;;19.83;11.18;;;;;;;18.48;100.00;95908.25;4975810;28;21009;-70
2023/07/24 04:40:48;;;;;;;17.23;11.00;;;;;;;18.56;100.00;95904.03;4980900;28;20208;-69
2023/07/24 04:43:15;;;;;;;21.77;12.23;;;;;;;18.50;100.00;95900.25;4976180;28;20058;-68
2023/07/24 04:45:41;;;;;;;21.33;11.35;;;;;;;18.44;100.00;95890.91;4996683;28;20109;-71
2023/07/24 04:48:06;;;;;;;17.45;11.02;;;;;;;18.50;100.00;95892.72;4976331;28;20130;-69
2023/07/24 04:50:32;;;;;;;24.77;14.18;;;;;;;18.41;100.00;95883.50;4981329;28;20046;-71
2023/07/24 04:52:58;;;;;;;22.02;13.13;;;;;;;18.16;100.00;95890.47;4978588;28;20038;-69
2023/07/24 04:55:23;;;;;;;19.67;12.13;;;;;;;18.02;100.00;95894.41;4975809;28;20482;-69
2023/07/24 04:57:48;;;;;;;23.63;12.55;;;;;;;17.94;100.00;95895.81;4980562;28;20073;-68
2023/07/24 05:00:14;;;;;;;17.45;11.50;;;;;;;18.02;100.00;95891.63;4975486;28;20047;-68
2023/07/24 05:02:40;;;;;;;19.55;11.63;;;;;;;18.27;100.00;95888.19;4995192;28;20042;-68
2023/07/24 05:05:06;;;;;;;18.88;11.63;;;;;;;18.50;100.00;95884.41;4976325;28;20398;-68
2023/07/24 05:07:32;;;;;;;16.50;10.50;;;;;;;18.81;100.00;95880.38;4980843;28;20038;-68
2023/07/24 05:09:57;;;;;;;20.88;11.07;;;;;;;19.07;100.00;95887.56;4981231;28;20065;-73
2023/07/24 05:12:22;;;;;;;20.83;11.75;;;;;;;19.50;100.00;95896.56;4976317;28;20046;-74
2023/07/24 05:14:48;;;;;;;18.23;10.75;;;;;;;20.08;100.00;95908.59;4979444;28;20038;-73
2023/07/24 05:17:13;;;;;;;19.17;11.73;;;;;;;21.18;100.00;95925.38;4976678;28;20042;-73
2023/07/24 05:19:39;;;;;;;19.50;10.48;;;;;;;22.27;100.00;95956.16;4995636;28;20043;-72
2023/07/24 05:22:05;;;;;;;17.10;10.32;;;;;;;22.07;100.00;96003.94;4976415;28;20061;-69
2023/07/24 05:24:30;;;;;;;19.38;11.43;;;;;;;21.14;100.00;96034.09;4981323;28;20049;-69
2023/07/24 05:26:55;;;;;;;18.80;10.68;;;;;;;20.48;100.00;96109.06;4984721;28;20054;-69
2023/07/24 05:29:21;;;;;;;20.10;11.70;;;;;;;19.36;100.00;96155.22;4980272;28;20042;-72
2023/07/24 05:31:50;;;;;;;27.10;12.05;;;;;;;18.95;100.00;96193.53;4984574;28;20112;-69
2023/07/24 05:34:15;;;;;;;22.27;12.82;;;;;;;18.57;100.00;96230.06;4979705;28;20042;-68
2023/07/24 05:36:41;;;;;;;26.17;13.90;;;;;;;18.20;100.00;96236.81;4984344;28;20046;-69
2023/07/24 05:39:06;;;;;;;24.02;12.00;;;;;;;18.02;100.00;96215.78;4979612;28;20045;-68
2023/07/24 05:41:32;;;;;;;23.83;12.27;;;;;;;17.89;100.00;96223.22;4984237;28;20069;-68
2023/07/24 05:43:57;;;;;;;18.38;10.50;;;;;;;17.68;100.00;96224.38;4984187;28;20046;-67
2023/07/24 05:46:22;;;;;;;16.30;10.68;;;;;;;17.39;100.00;96200.00;4979561;28;20569;-69
2023/07/24 05:48:48;;;;;;;21.02;11.60;;;;;;;17.21;100.00;96211.38;4999241;28;20129;-68
2023/07/24 05:51:13;;;;;;;23.52;10.93;;;;;;;17.10;100.00;96208.81;4979051;28;20050;-67
2023/07/24 05:53:39;;;;;;;22.63;11.60;;;;;;;17.10;100.00;96199.72;4999360;28;20120;-69
2023/07/24 05:56:04;;;;;;;20.67;10.20;;;;;;;17.01;100.00;96180.91;4980773;28;20046;-72
2023/07/24 05:58:30;;;;;;;16.50;8.80;;;;;;;17.01;100.00;96158.78;4983418;28;20050;-70
2023/07/24 06:00:55;;;;;;;11.60;6.78;;;;;;;17.02;100.00;96142.97;4981318;28;20144;-70
2023/07/24 06:03:22;;;;;;;12.98;7.03;;;;;;;17.04;100.00;96121.97;4979018;28;20050;-69
2023/07/24 06:05:53;;;;;;;11.25;6.75;;;;;;;17.06;100.00;96102.97;4989886;28;20077;-70
2023/07/24 06:08:20;;;;;;;11.70;6.32;;;;;;;17.00;100.00;96090.84;4984438;28;20131;-69
2023/07/24 06:10:49;;;;;;;12.05;6.07;;;;;;;17.07;100.00;96043.66;4984691;28;20061;-70
2023/07/24 06:13:15;;;;;;;;;;;;;;;17.22;100.00;96024.00;4979464;28;20034;-69
2023/07/24 06:15:41;;;;;;;11.05;5.93;;;;;;;17.28;100.00;96006.47;4983085;28;19914;-68
2023/07/24 06:18:06;;;;;;;15.00;6.55;;;;;;;17.51;100.00;96008.34;4981139;28;20495;-68
2023/07/24 06:20:31;;;;;;;15.63;6.57;;;;;;;17.34;100.00;95984.59;4983686;28;20045;-69
2023/07/24 06:22:57;;;;;;;24.10;6.40;;;;;;;17.37;100.00;96019.72;4983480;28;20104;-69
2023/07/24 06:25:22;;;;;;;11.18;6.03;;;;;;;17.39;100.00;96064.34;4976729;28;20561;-69
2023/07/24 06:27:47;;;;;;;11.95;6.20;;;;;;;17.33;100.00;96066.84;4983046;28;20045;-69
2023/07/24 06:30:13;;;;;;;13.02;6.30;;;;;;;17.21;100.00;96045.34;4978367;28;20467;-69
2023/07/24 06:32:38;;;;;;;12.38;6.68;;;;;;;16.98;100.00;96022.09;4983933;28;20039;-68
2023/07/24 06:35:04;;;;;;;12.48;7.15;;;;;;;16.95;100.00;96000.81;4977748;28;20105;-70
2023/07/24 06:37:29;;;;;;;13.27;7.03;;;;;;;16.95;100.00;96022.16;4982865;28;20081;-68
2023/07/24 06:39:55;;;;;;;11.80;6.47;;;;;;;17.20;100.00;96054.88;4983382;28;20053;-69
2023/07/24 06:42:20;;;;;;;14.82;6.03;;;;;;;17.57;100.00;96047.38;4977773;28;20042;-68
2023/07/24 06:44:45;;;;;;;13.30;6.28;;;;;;;17.81;100.00;96063.88;4983408;28;20054;-68
2023/07/24 06:47:11;;;;;;;11.63;6.18;;;;;;;17.94;100.00;96054.50;4978152;28;20388;-68
2023/07/24 06:49:36;;;;;;;11.98;5.75;;;;;;;18.01;100.00;96031.38;4983193;28;20109;-68
2023/07/24 06:52:02;;;;;;;13.35;5.68;;;;;;;17.98;100.00;96015.63;4982343;28;20050;-68
2023/07/24 06:54:27;;;;;;;16.95;6.13;;;;;;;18.02;100.00;96016.31;4979244;28;20042;-68
2023/07/24 06:56:53;;;;;;;12.13;5.88;;;;;;;18.39;100.00;96019.78;4983208;28;20038;-68
2023/07/24 06:59:18;;;;;;;13.07;5.82;;;;;;;18.51;100.00;95999.66;4978147;28;20547;-68
2023/07/24 07:01:43;;;;;;;13.70;6.45;;;;;;;18.32;100.00;96000.53;4983234;28;20050;-69
2023/07/24 07:04:09;;;;;;;11.25;5.68;;;;;;;18.29;100.00;96013.28;4977474;28;20488;-69
2023/07/24 07:06:34;;;;;;;10.57;5.60;;;;;;;18.84;100.00;96012.69;4982110;28;20046;-69
2023/07/24 07:08:59;;;;;;;11.10;5.95;;;;;;;18.37;100.00;96022.19;4983619;28;20047;-69
2023/07/24 07:11:25;;;;;;;10.13;6.20;;;;;;;17.95;100.00;96022.00;4978195;28;20052;-69
2023/07/24 07:13:50;;;;;;;13.38;6.97;;;;;;;17.61;100.00;96044.53;4983283;28;20120;-69
2023/07/24 07:16:16;;;;;;;10.82;6.20;;;;;;;17.45;100.00;96067.41;4978366;28;20046;-69
2023/07/24 07:18:42;;;;;;;11.48;6.30;;;;;;;17.55;100.00;96060.88;4982846;28;20088;-69
2023/07/24 07:21:07;;;;;;;16.15;7.07;;;;;;;17.85;100.00;96047.97;4977982;28;20495;-69
2023/07/24 07:23:32;;;;;;;14.48;6.45;;;;;;;18.24;100.00;96026.88;4985625;28;20086;-69
2023/07/24 07:25:58;;;;;;;13.32;6.38;;;;;;;18.36;100.00;96028.19;4986624;28;20121;-69
2023/07/24 07:28:23;;;;;;;10.32;5.80;;;;;;;18.57;100.00;96044.28;4985087;28;20050;-69
2023/07/24 07:30:49;;;;;;;10.50;5.68;;;;;;;18.46;100.00;96061.19;4987670;28;20049;-69
2023/07/24 07:33:14;;;;;;;13.18;6.00;;;;;;;18.36;100.00;96069.75;4977822;28;20208;-69
2023/07/24 07:35:39;;;;;;;12.00;6.38;;;;;;;18.02;100.00;96062.63;4982654;28;20110;-69
2023/07/24 07:38:05;;;;;;;13.13;6.68;;;;;;;18.02;100.00;96035.69;4977202;28;20140;-69
2023/07/24 07:40:30;;;;;;;15.50;6.47;;;;;;;18.06;100.00;96019.78;4982547;28;20051;-69
2023/07/24 07:42:57;;;;;;;13.80;6.75;;;;;;;18.12;100.00;96012.50;4982187;28;20270;-70
2023/07/24 07:45:23;;;;;;;12.63;6.22;;;;;;;18.38;100.00;95984.94;4977172;28;20494;-69
2023/07/24 07:47:48;;;;;;;10.43;5.70;;;;;;;18.72;100.00;95983.66;4983166;28;20062;-69
2023/07/24 07:50:14;;;;;;;10.85;5.78;;;;;;;18.81;100.00;96003.25;4983988;28;20034;-70
2023/07/24 07:52:40;;;;;;;10.40;5.95;;;;;;;18.81;100.00;95999.66;4982162;28;20093;-70
2023/07/24 07:55:06;;;;;;;11.27;6.07;;;;;;;18.81;100.00;95997.69;4977570;28;20108;-69
2023/07/24 07:57:34;;;;;;;13.35;6.45;;;;;;;19.16;100.00;96006.25;4981806;28;20379;-69
2023/07/24 07:59:59;;;;;;;12.00;6.43;;;;;;;19.54;100.00;96011.09;4980528;28;20045;-69
2023/07/24 08:02:25;;;;;;;13.93;6.35;;;;;;;19.92;100.00;96006.81;4976172;28;20046;-68
2023/07/24 08:04:50;;;;;;;14.55;6.45;;;;;;;20.15;100.00;95991.75;4981794;28;20054;-68
2023/07/24 08:07:15;;;;;;;12.30;6.28;;;;;;;20.22;100.00;95983.97;4976929;28;20050;-68
2023/07/24 08:09:41;;;;;;;13.75;6.18;;;;;;;19.94;100.00;96001.56;4982184;28;20035;-68
2023/07/24 08:12:07;;;;;;;13.27;6.22;;;;;;;19.73;100.00;95989.09;4977504;28;20042;-69
2023/07/24 08:14:32;;;;;;;10.48;6.05;;;;;;;19.85;100.00;96003.00;4981279;28;20129;-68
2023/07/24 08:16:57;;;;;;;11.23;5.90;;;;;;;20.06;100.00;96014.69;4981252;28;20069;-68
2023/07/24 08:19:23;;;;;;;12.68;5.85;;;;;;;20.30;100.00;96023.44;4976840;28;20042;-68
2023/07/24 08:21:48;;;;;;;11.98;5.45;;;;;;;20.33;100.00;96016.97;4982062;28;20069;-68
2023/07/24 08:24:13;;;;;;;10.93;5.88;;;;;;;20.39;100.00;96014.41;4975787;28;20042;-68
2023/07/24 08:26:39;;;;;;;11.93;6.20;;;;;;;20.37;100.00;95997.41;4979816;28;20069;-68
2023/07/24 08:29:05;;;;;;;8.75;5.30;;;;;;;20.28;100.00;96000.88;4977761;28;20034;-69
2023/07/24 08:31:31;;;;;;;12.32;6.07;;;;;;;20.27;100.00;95993.72;4981093;28;20042;-68
2023/07/24 08:33:56;;;;;;;10.38;5.80;;;;;;;20.25;100.00;95990.63;4981164;28;20054;-68
2023/07/24 08:36:22;;;;;;;9.05;5.53;;;;;;;20.34;100.00;95974.03;4976446;28;20116;-69
2023/07/24 08:38:47;;;;;;;7.90;5.20;;;;;;;20.30;100.00;95953.91;4981494;28;20049;-69
2023/07/24 08:41:14;;;;;;;12.25;6.47;;;;;;;20.40;100.00;95940.84;4976464;28;20082;-69
2023/07/24 08:43:43;;;;;;;12.32;6.30;;;;;;;19.63;100.00;95914.00;4979826;28;20045;-69
2023/07/24 08:46:09;;;;;;;10.00;6.30;;;;;;;19.55;100.00;95917.44;4976127;28;20077;-69
2023/07/24 08:48:44;;;;;;;12.80;6.40;;;;;;;20.51;100.00;95935.72;4981382;28;20290;-69
2023/07/24 08:51:11;;;;;;;11.65;6.20;;;;;;;21.13;100.00;95935.09;4976244;28;20050;-69
2023/07/24 08:53:41;;;;;;;13.00;6.28;;;;;;;21.90;100.00;95936.53;4980303;28;20038;-69
2023/07/24 08:56:08;;;;;;;9.93;5.90;;;;;;;22.44;100.00;95943.47;4976314;28;20039;-69
2023/07/24 08:58:35;;;;;;;12.50;5.88;;;;;;;22.72;100.00;95946.25;4979617;28;20049;-69
2023/07/24 09:01:02;;;;;;;11.35;5.95;;;;;;;23.02;100.00;95932.59;4981744;28;20137;-69
2023/07/24 09:03:28;;;;;;;11.75;5.93;;;;;;;23.34;100.00;95913.63;4975857;28;20077;-69
2023/07/24 09:05:54;;;;;;;9.23;5.13;;;;;;;23.62;100.00;95911.47;4980429;28;20038;-69
2023/07/24 09:08:33;;;;;;;10.43;4.95;;;;;;;23.90;100.00;95926.13;4990645;28;20519;-68
2023/07/24 09:10:59;;;;;;;;;;;;;;;24.23;100.00;95939.28;4980897;28;20125;-69
2023/07/24 09:13:25;;;;;;;8.93;5.40;;;;;;;24.38;100.00;95953.31;4978551;28;20032;-69
2023/07/24 09:15:51;;;;;;;8.73;5.60;;;;;;;24.72;100.00;95934.44;4981306;28;20038;-70
2023/07/24 09:18:18;;;;;;;9.95;5.43;;;;;;;25.43;96.55;95923.50;4975931;28;20042;-68
2023/07/24 09:20:44;;;;;;;9.40;5.60;;;;;;;26.58;86.37;95923.38;4981558;28;20054;-68
2023/07/24 09:23:10;;;;;;;10.57;5.35;;;;;;;26.52;83.39;95933.75;4974999;28;20038;-68
2023/07/24 09:25:38;;;;;;;9.18;4.93;;;;;;;26.86;77.74;95945.41;4982463;28;20050;-68
2023/07/24 09:28:17;;;;;;;9.82;5.20;;;;;;;26.19;81.61;95936.91;4978810;28;20494;-69
2023/07/24 09:30:52;;;;;;;9.73;4.78;;;;;;;26.19;82.97;95909.59;4985354;28;20324;-68
2023/07/24 09:33:18;;;;;;;10.30;5.32;;;;;;;25.81;83.01;95904.97;4976887;28;20208;-68
2023/07/24 09:35:43;;;;;;;8.20;4.53;;;;;;;26.36;79.12;95923.06;4979860;28;20562;-70
2023/07/24 09:38:10;;;;;;;8.27;5.15;;;;;;;27.30;71.98;95924.66;4990371;28;20035;-68
2023/07/24 09:40:43;;;;;;;10.93;5.00;;;;;;;27.77;66.84;95897.16;4979883;28;20392;-68
2023/07/24 09:43:18;;;;;;;8.20;4.53;;;;;;;28.38;65.81;95890.34;4975128;28;20403;-68
2023/07/24 09:45:44;;;;;;;9.57;5.05;;;;;;;28.90;61.28;95908.97;4980812;28;20129;-68
2023/07/24 09:48:12;;;;;;;8.70;4.53;;;;;;;29.07;59.60;95909.00;4975319;28;20545;-68
2023/07/24 09:50:39;;;;;;;8.23;4.53;;;;;;;28.58;58.32;95916.81;4979765;28;20061;-69
2023/07/24 09:53:06;;;;;;;7.90;4.68;;;;;;;27.70;60.57;95916.56;4975614;28;20060;-68
2023/07/24 09:55:38;;;;;;;9.57;5.07;;;;;;;27.13;64.59;95907.59;4979979;28;20504;-68
2023/07/24 09:58:04;;;;;;;12.45;5.38;;;;;;;26.47;69.04;95883.91;4992073;28;20104;-67
2023/07/24 10:00:31;;;;;;;7.75;4.82;;;;;;;26.35;72.37;95882.25;4980845;28;20050;-67
2023/07/24 10:02:58;;;;;;;9.55;4.65;;;;;;;27.37;67.71;95876.44;4979889;28;20045;-69
2023/07/24 10:05:24;;;;;;;12.20;5.45;;;;;;;27.70;63.73;95868.72;4975384;28;20929;-69
2023/07/24 10:07:51;;;;;;;8.70;5.13;;;;;;;27.21;64.18;95860.94;4981202;28;20053;-69
2023/07/24 10:10:17;;;;;;;8.27;4.90;;;;;;;27.41;63.40;95846.03;4976048;28;20038;-68
2023/07/24 10:12:43;;;;;;;8.90;5.30;;;;;;;27.42;63.48;95847.59;4983429;28;20094;-69
2023/07/24 10:15:09;;;;;;;9.63;5.00;;;;;;;27.04;63.70;95841.09;4979047;28;20034;-69
2023/07/24 10:17:35;;;;;;;7.35;4.80;;;;;;;26.67;66.40;95838.97;4983280;28;20049;-69
2023/07/24 10:20:05;;;;;;;11.05;5.85;;;;;;;26.46;68.17;95834.66;4982928;28;20140;-69
2023/07/24 10:22:31;;;;;;;9.55;5.38;;;;;;;26.50;66.30;95835.19;4980825;28;20073;-69
2023/07/24 10:24:57;;;;;;;8.95;5.68;;;;;;;26.38;66.21;95833.53;4981846;28;20129;-69
2023/07/24 10:27:25;;;;;;;8.27;5.13;;;;;;;26.06;69.13;95831.38;4978387;28;20493;-69
2023/07/24 10:30:02;;;;;;;9.27;5.10;;;;;;;25.99;70.82;95839.47;4982622;28;20121;-69
2023/07/24 10:32:28;;;;;;;9.55;5.13;;;;;;;25.92;69.94;95835.75;4979105;28;20038;-69
2023/07/24 10:35:22;;;;;;;7.85;5.15;;;;;;;25.92;71.85;95846.97;4981958;28;20073;-69
2023/07/24 10:37:47;;;;;;;10.60;5.57;;;;;;;25.72;72.10;95852.59;4981646;28;20104;-68
2023/07/24 10:40:22;;;;;;;9.05;5.47;;;;;;;25.38;74.86;95872.47;4992635;28;20042;-70
2023/07/24 10:43:05;;;;;;;10.10;5.18;;;;;;;25.25;78.43;95880.41;4983631;28;20048;-69
2023/07/24 10:45:47;;;;;;;9.88;5.78;;;;;;;24.49;89.27;95922.00;4982997;28;20042;-69
2023/07/24 10:48:13;;;;;;;11.13;5.80;;;;;;;24.19;92.39;95925.47;4977680;28;20450;-68
2023/07/24 10:50:46;;;;;;;9.15;5.60;;;;;;;24.18;96.47;95931.53;4982106;28;20038;-69
2023/07/24 10:53:16;;;;;;;9.52;5.85;;;;;;;23.90;100.00;95919.75;4978141;28;20070;-69
2023/07/24 10:55:47;;;;;;;12.48;6.30;;;;;;;23.95;100.00;95936.66;4983110;28;20043;-69
2023/07/24 10:58:13;;;;;;;12.02;6.05;;;;;;;24.64;97.59;95927.69;4978096;28;20439;-69
2023/07/24 11:00:40;;;;;;;11.27;6.03;;;;;;;25.32;94.34;95922.06;4982749;28;20050;-69
2023/07/24 11:03:10;;;;;;;9.55;5.90;;;;;;;25.31;85.57;95923.31;4976519;28;20745;-69
2023/07/24 11:05:40;;;;;;;11.63;5.95;;;;;;;24.92;86.09;95914.19;4982536;28;20054;-69
2023/07/24 11:08:16;;;;;;;9.93;6.00;;;;;;;24.19;86.44;95924.72;4978238;28;20323;-68
2023/07/24 11:10:49;;;;;;;11.10;6.20;;;;;;;24.16;86.38;95937.59;4982340;28;20321;-70
2023/07/24 11:13:17;;;;;;;9.75;5.95;;;;;;;23.84;89.54;95950.38;4984490;28;20364;-69